createdAt,value
2023-05-04T00:00:23.931Z,81.80
2023-05-04T00:00:55.730Z,81.60
2023-05-04T00:01:27.580Z,82.40
2023-05-04T00:01:59.361Z,81.90
2023-05-04T00:02:31.337Z,82.10
2023-05-04T00:10:05.121Z,80.90
2023-05-04T00:10:37.229Z,80.90
2023-05-04T00:12:13.785Z,81.10
2023-05-04T00:13:50.269Z,80.80
2023-05-04T00:14:54.454Z,80.90
2023-05-04T00:15:59.288Z,80.80
2023-05-04T00:17:06.361Z,80.70
2023-05-04T00:17:38.250Z,80.80
2023-05-04T00:18:10.028Z,80.90
2023-05-04T00:18:41.954Z,81.00
2023-05-04T00:19:47.945Z,80.80
2023-05-04T00:21:24.207Z,80.80
2023-05-04T00:21:55.964Z,81.30
2023-05-04T00:22:27.790Z,81.30
2023-05-04T00:22:59.638Z,81.60
2023-05-04T00:24:03.698Z,81.20
2023-05-04T00:24:35.664Z,81.20
2023-05-04T00:25:08.051Z,81.30
2023-05-04T00:25:39.840Z,81.40
2023-05-04T00:26:11.676Z,81.40
2023-05-04T00:27:17.513Z,81.00
2023-05-04T00:28:53.579Z,80.90
2023-05-04T00:29:25.432Z,80.90
2023-05-04T00:29:57.453Z,81.00
2023-05-04T00:30:29.184Z,81.20
2023-05-04T00:31:01.270Z,81.10
2023-05-04T00:32:05.790Z,80.80
2023-05-04T00:32:37.649Z,81.20
2023-05-04T00:33:09.555Z,81.30
2023-05-04T00:33:41.543Z,81.20
2023-05-04T00:35:20.124Z,80.80
2023-05-04T00:39:58.094Z,80.50
2023-05-04T00:43:11.532Z,80.40
2023-05-04T00:43:43.649Z,80.70
2023-05-04T00:44:47.616Z,80.70
2023-05-04T00:45:52.043Z,80.60
2023-05-04T00:47:30.040Z,80.70
2023-05-04T00:48:02.481Z,81.00
2023-05-04T00:49:07.925Z,80.90
2023-05-04T00:49:40.326Z,81.10
2023-05-04T00:50:12.713Z,81.60
2023-05-04T00:50:44.814Z,81.70
2023-05-04T02:36:32.048Z,81.40
2023-05-04T02:37:06.592Z,81.50
2023-05-04T02:39:17.391Z,81.70
2023-05-04T02:39:49.155Z,81.90
2023-05-04T02:40:20.886Z,82.40
2023-05-04T02:40:52.650Z,82.10
2023-05-04T02:41:24.352Z,82.10
2023-05-04T02:41:56.969Z,83.90
2023-05-04T02:42:28.751Z,82.40
2023-05-04T02:43:01.551Z,83.00
2023-05-04T02:43:33.381Z,83.30
2023-05-04T02:44:05.353Z,83.60
2023-05-04T02:44:37.153Z,82.50
2023-05-04T02:45:09.293Z,83.40
2023-05-04T02:45:41.058Z,83.30
2023-05-04T02:46:12.902Z,83.20
2023-05-04T02:46:45.502Z,84.10
2023-05-04T02:47:17.257Z,84.60
2023-05-04T02:47:49.093Z,82.60
2023-05-04T02:48:20.882Z,83.30
2023-05-04T02:48:52.707Z,82.80
2023-05-04T02:49:24.562Z,84.70
2023-05-04T02:49:56.392Z,82.80
2023-05-04T02:50:28.260Z,83.40
2023-05-04T02:51:00.645Z,83.40
2023-05-04T02:51:32.384Z,83.80
2023-05-04T02:52:04.237Z,82.80
2023-05-04T02:52:36.207Z,83.00
2023-05-04T02:53:07.995Z,83.30
2023-05-04T02:53:39.731Z,83.20
2023-05-04T02:54:11.476Z,83.00
2023-05-04T02:54:43.247Z,83.00
2023-05-04T02:55:15.574Z,83.00
2023-05-04T02:55:47.367Z,83.20
2023-05-04T02:56:19.149Z,83.50
2023-05-04T02:56:50.941Z,84.30
2023-05-04T02:57:22.894Z,83.00
2023-05-04T02:57:54.724Z,83.50
2023-05-04T02:58:26.467Z,83.70
2023-05-04T02:58:58.269Z,83.50
2023-05-04T02:59:30.030Z,83.70
2023-05-04T03:00:02.064Z,83.20
2023-05-04T03:00:34.057Z,85.40
2023-05-04T03:01:05.905Z,84.10
2023-05-04T03:01:37.766Z,83.80
2023-05-04T03:02:09.540Z,83.30
2023-05-04T03:02:41.460Z,85.20
2023-05-04T03:03:13.343Z,83.10
2023-05-04T03:03:45.288Z,83.30
2023-05-04T03:04:17.145Z,83.30
2023-05-04T03:04:49.050Z,84.10
2023-05-04T03:05:20.945Z,84.20
2023-05-04T03:05:52.763Z,84.10
2023-05-04T03:06:24.732Z,83.30
2023-05-04T03:06:57.051Z,83.40
2023-05-04T03:07:29.165Z,83.40
2023-05-04T03:08:01.050Z,85.30
2023-05-04T03:08:32.999Z,85.10
2023-05-04T03:09:04.758Z,83.30
2023-05-04T03:10:10.058Z,83.40
2023-05-04T03:10:41.899Z,84.00
2023-05-04T03:11:14.594Z,83.80
2023-05-04T03:11:46.366Z,83.30
2023-05-04T03:12:18.328Z,84.00
2023-05-04T03:12:50.431Z,84.10
2023-05-04T03:13:22.599Z,84.10
2023-05-04T03:13:54.453Z,83.30
2023-05-04T03:14:26.436Z,83.80
2023-05-04T03:14:58.292Z,84.60
2023-05-04T03:15:30.069Z,83.80
2023-05-04T03:16:02.141Z,83.30
2023-05-04T03:16:34.108Z,83.50
2023-05-04T03:17:07.143Z,85.20
2023-05-04T03:17:39.137Z,84.10
2023-05-04T03:18:11.083Z,83.30
2023-05-04T03:18:43.153Z,85.80
2023-05-04T03:19:18.884Z,83.90
2023-05-04T03:19:50.958Z,86.10
2023-05-04T03:20:22.985Z,83.40
2023-05-04T03:20:54.772Z,83.40
2023-05-04T03:21:27.479Z,84.30
2023-05-04T03:21:59.283Z,83.40
2023-05-04T03:22:31.116Z,84.00
2023-05-04T03:23:02.878Z,83.40
2023-05-04T03:23:36.274Z,83.90
2023-05-04T03:24:08.526Z,84.00
2023-05-04T03:24:40.411Z,83.90
2023-05-04T03:25:12.194Z,83.40
2023-05-04T03:25:44.430Z,83.50
2023-05-04T03:26:16.220Z,83.50
2023-05-04T03:26:48.213Z,83.40
2023-05-04T03:27:20.380Z,84.20
2023-05-04T03:27:52.188Z,84.00
2023-05-04T03:28:24.039Z,83.60
2023-05-04T03:28:55.919Z,83.40
2023-05-04T03:29:28.000Z,83.40
2023-05-04T03:30:01.331Z,83.40
2023-05-04T03:30:33.517Z,86.00
2023-05-04T03:31:07.174Z,84.20
2023-05-04T03:31:39.220Z,84.20
2023-05-04T03:32:13.267Z,83.40
2023-05-04T03:32:45.537Z,85.40
2023-05-04T03:33:17.479Z,85.00
2023-05-04T03:33:49.339Z,83.80
2023-05-04T03:34:21.721Z,83.50
2023-05-04T03:34:57.426Z,86.40
2023-05-04T03:35:29.856Z,84.20
2023-05-04T03:36:02.875Z,84.00
2023-05-04T03:37:07.981Z,83.50
2023-05-04T03:37:39.906Z,84.00
2023-05-04T03:38:11.727Z,83.60
2023-05-04T03:38:43.575Z,86.30
2023-05-04T03:39:19.203Z,83.60
2023-05-04T03:39:51.482Z,85.50
2023-05-04T03:40:24.260Z,83.60
2023-05-04T03:40:57.867Z,83.70
2023-05-04T03:42:02.553Z,83.60
2023-05-04T03:42:34.402Z,84.30
2023-05-04T03:43:06.204Z,83.60
2023-05-04T03:44:10.714Z,83.60
2023-05-04T03:44:42.451Z,84.10
2023-05-04T03:45:14.305Z,85.50
2023-05-04T03:45:46.222Z,84.80
2023-05-04T03:46:18.102Z,85.60
2023-05-04T03:46:51.071Z,86.00
2023-05-04T03:47:23.074Z,83.60
2023-05-04T03:47:56.117Z,84.50
2023-05-04T03:48:27.990Z,84.80
2023-05-04T03:49:00.476Z,84.40
2023-05-04T03:49:33.400Z,83.80
2023-05-04T03:50:05.836Z,83.90
2023-05-04T03:50:37.929Z,84.20
2023-05-04T03:51:09.719Z,85.80
2023-05-04T03:51:41.422Z,83.80
2023-05-04T03:52:45.732Z,83.80
2023-05-04T03:53:17.690Z,84.50
2023-05-04T03:53:49.481Z,84.00
2023-05-04T03:54:23.490Z,84.00
2023-05-04T03:54:55.284Z,84.50
2023-05-04T03:55:27.401Z,85.80
2023-05-04T03:55:59.182Z,83.90
2023-05-04T03:56:30.946Z,83.90
2023-05-04T03:57:04.349Z,84.20
2023-05-04T03:57:37.261Z,84.20
2023-05-04T03:58:09.421Z,84.20
2023-05-04T03:58:41.258Z,85.90
2023-05-04T03:59:13.144Z,84.00
2023-05-04T03:59:44.974Z,86.00
2023-05-04T04:00:17.298Z,84.20
2023-05-04T04:00:56.584Z,85.00
2023-05-04T04:01:28.450Z,84.90
2023-05-04T04:02:01.118Z,85.60
2023-05-04T04:02:33.019Z,85.60
2023-05-04T04:03:05.000Z,84.00
2023-05-04T04:03:38.864Z,84.00
2023-05-04T04:04:10.825Z,85.20
2023-05-04T04:04:42.744Z,85.50
2023-05-04T04:05:15.748Z,83.90
2023-05-04T04:05:47.813Z,86.50
2023-05-04T04:06:19.680Z,85.00
2023-05-04T04:06:51.394Z,84.00
2023-05-04T04:07:24.570Z,84.90
2023-05-04T04:07:56.386Z,84.60
2023-05-04T04:08:28.158Z,83.90
2023-05-04T04:08:59.950Z,86.70
2023-05-04T04:09:31.747Z,86.30
2023-05-04T04:10:03.724Z,84.40
2023-05-04T04:10:35.700Z,84.10
2023-05-04T04:11:07.455Z,86.20
2023-05-04T04:12:11.692Z,84.10
2023-05-04T04:13:15.846Z,84.60
2023-05-04T04:13:47.738Z,85.10
2023-05-04T04:14:19.583Z,85.50
2023-05-04T04:14:54.046Z,85.00
2023-05-04T04:15:25.833Z,85.10
2023-05-04T04:15:57.669Z,85.00
2023-05-04T04:16:29.478Z,84.70
2023-05-04T04:17:01.309Z,84.80
2023-05-04T04:17:33.073Z,84.70
2023-05-04T04:18:04.962Z,85.40
2023-05-04T04:18:36.764Z,85.30
2023-05-04T04:19:08.503Z,85.10
2023-05-04T04:19:40.480Z,84.50
2023-05-04T04:20:12.906Z,84.40
2023-05-04T04:20:45.514Z,84.20
2023-05-04T04:21:17.335Z,84.50
2023-05-04T04:21:49.155Z,85.10
2023-05-04T04:22:20.885Z,85.00
2023-05-04T04:22:52.723Z,85.00
2023-05-04T04:23:25.301Z,84.70
2023-05-04T04:23:57.121Z,85.00
2023-05-04T04:24:28.866Z,84.70
2023-05-04T04:25:00.647Z,84.60
2023-05-04T04:25:32.557Z,84.70
2023-05-04T04:26:06.107Z,84.80
2023-05-04T04:27:10.061Z,84.80
2023-05-04T04:27:41.787Z,84.70
2023-05-04T04:28:14.229Z,84.60
2023-05-04T04:28:50.355Z,84.70
2023-05-04T04:29:22.158Z,84.80
2023-05-04T04:29:53.856Z,84.50
2023-05-04T04:30:25.732Z,84.40
2023-05-04T04:30:57.550Z,84.60
2023-05-04T04:31:30.489Z,84.40
2023-05-04T04:32:03.527Z,84.20
2023-05-04T04:33:08.462Z,84.10
2023-05-04T04:33:40.951Z,84.00
2023-05-04T04:34:12.741Z,83.80
2023-05-04T04:34:44.842Z,83.90
2023-05-04T04:35:16.656Z,84.00
2023-05-04T04:36:52.905Z,84.00
2023-05-04T04:37:24.675Z,83.80
2023-05-04T04:37:56.439Z,83.70
2023-05-04T04:38:28.325Z,83.70
2023-05-04T04:39:00.454Z,83.70
2023-05-04T04:40:06.933Z,83.60
2023-05-04T04:41:43.497Z,83.60
2023-05-04T04:42:15.265Z,83.40
2023-05-04T04:42:47.393Z,83.80
2023-05-04T04:43:19.147Z,83.60
2023-05-04T04:43:50.962Z,84.00
2023-05-04T04:45:28.207Z,83.40
2023-05-04T04:46:00.157Z,83.70
2023-05-04T04:46:32.209Z,83.70
2023-05-04T04:47:03.979Z,83.70
2023-05-04T04:48:08.073Z,83.80
2023-05-04T04:49:12.966Z,83.50
2023-05-04T04:50:17.429Z,83.60
2023-05-04T04:50:49.189Z,84.00
2023-05-04T04:52:57.663Z,83.10
2023-05-04T04:54:33.785Z,83.00
2023-05-04T04:55:07.461Z,83.50
2023-05-04T04:56:11.633Z,83.40
2023-05-04T04:56:44.855Z,83.40
2023-05-04T04:57:16.706Z,83.60
2023-05-04T07:40:01.460Z,87.80
2023-05-04T08:02:39.099Z,87.00
2023-05-04T08:03:11.053Z,87.70
2023-05-04T08:03:44.087Z,87.70
2023-05-04T08:04:15.940Z,87.80
2023-05-04T08:04:47.712Z,87.80
2023-05-04T08:05:19.458Z,88.60
2023-05-04T08:05:51.173Z,88.30
2023-05-04T08:06:23.183Z,87.80
2023-05-04T08:06:54.930Z,88.70
2023-05-04T08:07:26.981Z,88.70
2023-05-04T08:07:58.773Z,89.00
2023-05-04T08:08:30.852Z,88.20
2023-05-04T08:09:02.613Z,89.50
2023-05-04T08:09:34.357Z,89.40
2023-05-04T08:10:06.911Z,89.00
2023-05-04T08:10:39.058Z,87.00
2023-05-04T08:11:20.082Z,87.40
2023-05-04T08:11:53.202Z,88.50
2023-05-04T08:12:26.920Z,88.30
2023-05-04T08:12:58.764Z,89.20
2023-05-04T08:13:30.876Z,88.70
2023-05-04T08:14:02.720Z,89.10
2023-05-04T08:14:36.789Z,89.90
2023-05-04T08:15:10.673Z,89.60
2023-05-04T08:15:42.566Z,90.30
2023-05-04T08:16:14.793Z,89.70
2023-05-04T08:16:47.360Z,90.30
2023-05-04T08:17:19.089Z,89.00
2023-05-04T08:17:51.291Z,89.70
2023-05-04T08:18:23.089Z,90.10
2023-05-04T08:18:56.223Z,89.20
2023-05-04T08:19:27.937Z,89.80
2023-05-04T08:20:00.319Z,88.90
2023-05-04T08:20:32.680Z,89.40
2023-05-04T08:21:05.085Z,89.20
2023-05-04T08:21:37.357Z,89.00
2023-05-04T08:22:09.243Z,89.20
2023-05-04T08:22:41.042Z,89.50
2023-05-04T08:23:13.725Z,89.90
2023-05-04T08:23:45.467Z,89.70
2023-05-04T08:24:18.252Z,89.90
2023-05-04T08:24:50.085Z,89.50
2023-05-04T08:25:22.710Z,89.70
2023-05-04T08:25:54.487Z,89.60
2023-05-04T08:26:26.623Z,89.20
2023-05-04T08:27:07.091Z,90.20
2023-05-04T08:27:40.134Z,89.00
2023-05-04T08:28:12.054Z,89.70
2023-05-04T08:28:45.649Z,90.10
2023-05-04T08:29:17.402Z,89.80
2023-05-04T08:29:49.130Z,90.10
2023-05-04T08:30:21.218Z,89.20
2023-05-04T08:30:52.988Z,89.10
2023-05-04T08:31:24.755Z,89.40
2023-05-04T08:31:57.804Z,90.10
2023-05-04T08:32:33.196Z,89.20
2023-05-04T08:33:05.647Z,89.50
2023-05-04T08:33:37.473Z,89.80
2023-05-04T08:34:09.253Z,90.00
2023-05-04T08:34:41.035Z,90.30
2023-05-04T08:35:13.659Z,89.10
2023-05-04T08:35:45.453Z,90.10
2023-05-04T08:36:17.542Z,90.10
2023-05-04T08:36:49.277Z,90.40
2023-05-04T08:37:21.182Z,90.10
2023-05-04T08:37:53.028Z,90.90
2023-05-04T08:38:24.786Z,90.40
2023-05-04T08:38:56.670Z,90.00
2023-05-04T08:39:28.546Z,90.20
2023-05-04T08:40:00.502Z,90.10
2023-05-04T08:40:33.687Z,90.20
2023-05-04T08:41:06.710Z,90.20
2023-05-04T08:41:41.854Z,90.10
2023-05-04T08:42:13.695Z,90.20
2023-05-04T08:42:48.020Z,90.30
2023-05-04T08:43:19.939Z,90.20
2023-05-04T08:43:52.153Z,90.10
2023-05-04T08:44:24.099Z,90.90
2023-05-04T08:44:57.308Z,90.20
2023-05-04T08:45:29.677Z,90.60
2023-05-04T08:46:01.633Z,90.60
2023-05-04T08:46:34.154Z,90.30
2023-05-04T08:47:06.001Z,90.40
2023-05-04T08:47:37.998Z,90.40
2023-05-04T08:48:10.292Z,90.80
2023-05-04T08:48:44.586Z,90.70
2023-05-04T08:49:16.367Z,90.40
2023-05-04T08:49:48.522Z,90.10
2023-05-04T08:50:20.445Z,90.00
2023-05-04T08:50:53.549Z,90.30
2023-05-04T08:51:26.283Z,90.10
2023-05-04T08:52:00.577Z,90.30
2023-05-04T08:52:32.609Z,90.30
2023-05-04T08:53:11.533Z,90.20
2023-05-04T08:53:47.143Z,89.90
2023-05-04T08:54:20.896Z,90.10
2023-05-04T08:54:56.882Z,90.10
2023-05-04T08:55:31.266Z,89.70
2023-05-04T08:56:09.354Z,90.30
2023-05-04T08:56:41.284Z,90.60
2023-05-04T08:57:14.827Z,90.40
2023-05-04T08:57:47.365Z,90.20
2023-05-04T08:58:24.018Z,90.00
2023-05-04T08:59:01.735Z,90.40
2023-05-04T08:59:33.954Z,90.10
2023-05-04T09:00:06.572Z,90.20
2023-05-04T09:00:39.769Z,90.20
2023-05-04T09:01:13.225Z,90.40
2023-05-04T09:01:50.025Z,90.20
2023-05-04T09:02:23.484Z,90.40
2023-05-04T09:02:56.630Z,90.20
2023-05-04T09:03:30.349Z,90.30
2023-05-04T09:04:04.306Z,89.80
2023-05-04T09:04:36.435Z,89.80
2023-05-04T09:05:11.372Z,90.10
2023-05-04T09:05:44.686Z,90.30
2023-05-04T09:06:17.268Z,90.00
2023-05-04T09:06:49.789Z,90.10
2023-05-04T09:07:22.727Z,90.00
2023-05-04T09:07:54.653Z,90.00
2023-05-04T09:08:27.196Z,90.00
2023-05-04T09:08:58.952Z,89.80
2023-05-04T09:09:31.622Z,90.00
2023-05-04T09:10:04.253Z,89.80
2023-05-04T09:10:36.978Z,89.70
2023-05-04T09:11:08.800Z,89.50
2023-05-04T09:11:40.833Z,89.60
2023-05-04T09:12:13.254Z,89.60
2023-05-04T09:12:45.091Z,89.50
2023-05-04T09:13:17.111Z,89.20
2023-05-04T09:13:48.946Z,89.10
2023-05-04T09:14:22.305Z,89.50
2023-05-04T09:14:54.116Z,89.90
2023-05-04T09:15:26.272Z,89.20
2023-05-04T09:15:58.798Z,89.50
2023-05-04T09:16:37.856Z,90.20
2023-05-04T09:17:18.051Z,90.30
2023-05-04T09:18:03.218Z,90.00
2023-05-04T09:18:45.038Z,89.90
2023-05-04T09:19:20.806Z,89.50
2023-05-04T09:19:59.402Z,90.10
2023-05-04T09:20:42.423Z,89.70
2023-05-04T09:21:14.244Z,90.00
2023-05-04T09:21:47.166Z,89.50
2023-05-04T09:22:20.043Z,89.10
2023-05-04T09:23:08.971Z,88.90
2023-05-04T09:23:51.598Z,89.00
2023-05-04T09:24:31.451Z,89.30
2023-05-04T09:25:13.906Z,88.80
2023-05-04T09:25:49.365Z,89.70
2023-05-04T09:26:31.981Z,89.90
2023-05-04T09:27:11.356Z,90.00
2023-05-04T09:27:54.549Z,89.70
2023-05-04T09:28:38.480Z,90.00
2023-05-04T09:29:13.315Z,89.50
2023-05-04T09:29:53.790Z,90.00
2023-05-04T09:30:26.182Z,89.70
2023-05-04T09:31:00.926Z,89.60
2023-05-04T09:31:45.791Z,90.50
2023-05-04T09:32:17.791Z,89.60
2023-05-04T09:32:49.891Z,90.20
2023-05-04T09:33:28.202Z,89.10
2023-05-04T09:34:09.427Z,89.70
2023-05-04T09:34:52.182Z,90.30
2023-05-04T09:35:34.100Z,89.40
2023-05-04T09:36:17.077Z,89.70
2023-05-04T09:37:02.804Z,89.60
2023-05-04T09:37:45.158Z,90.00
2023-05-04T09:38:31.441Z,89.50
2023-05-04T09:39:12.596Z,89.30
2023-05-04T09:39:58.725Z,89.40
2023-05-04T09:40:40.149Z,89.40
2023-05-04T09:41:12.517Z,89.20
2023-05-04T09:41:44.305Z,89.30
2023-05-04T09:42:18.484Z,88.80
2023-05-04T09:42:57.207Z,88.70
2023-05-04T09:43:38.295Z,89.30
2023-05-04T09:44:23.893Z,89.20
2023-05-04T09:45:03.745Z,89.10
2023-05-04T09:45:43.702Z,89.00
2023-05-04T09:46:18.670Z,88.60
2023-05-04T09:46:57.917Z,88.70
2023-05-04T09:47:40.761Z,88.80
2023-05-04T09:48:26.854Z,88.70
2023-05-04T09:48:58.914Z,89.00
2023-05-04T09:49:35.627Z,88.20
2023-05-04T09:50:12.205Z,88.60
2023-05-04T09:50:57.946Z,89.50
2023-05-04T09:51:30.169Z,88.20
2023-05-04T09:52:05.034Z,88.60
2023-05-04T09:52:37.135Z,88.20
2023-05-04T09:53:09.946Z,87.90
2023-05-04T09:53:43.415Z,87.80
2023-05-04T09:54:18.209Z,88.60
2023-05-04T09:54:50.700Z,88.80
2023-05-04T09:55:23.781Z,87.60
2023-05-04T09:56:06.483Z,89.20
2023-05-04T09:56:47.988Z,88.60
2023-05-04T09:57:22.724Z,89.30
2023-05-04T09:57:54.676Z,88.90
2023-05-04T09:58:26.575Z,88.30
2023-05-04T09:58:58.970Z,87.40
2023-05-04T09:59:34.382Z,88.60
2023-05-04T10:00:06.784Z,88.80
2023-05-04T10:00:39.474Z,87.80
2023-05-04T10:01:11.749Z,87.80
2023-05-04T10:01:45.016Z,87.80
2023-05-04T10:02:23.290Z,87.80
2023-05-04T10:02:56.311Z,88.20
2023-05-04T10:03:28.972Z,87.50
2023-05-04T10:04:01.964Z,87.30
2023-05-04T10:04:34.804Z,87.90
2023-05-04T10:05:09.183Z,88.30
2023-05-04T10:05:41.337Z,87.30
2023-05-04T10:06:13.484Z,87.20
2023-05-04T10:06:46.556Z,89.40
2023-05-04T10:07:19.110Z,87.60
2023-05-04T10:07:52.114Z,88.20
2023-05-04T10:08:24.083Z,87.30
2023-05-04T10:08:58.741Z,87.40
2023-05-04T10:09:31.776Z,87.10
2023-05-04T10:10:04.685Z,86.70
2023-05-04T10:10:38.766Z,86.80
2023-05-04T10:11:10.615Z,86.40
2023-05-04T10:12:14.888Z,86.70
2023-05-04T10:18:12.088Z,85.70
2023-05-04T12:03:53.833Z,79.20
2023-05-04T12:04:32.106Z,79.30
2023-05-04T12:05:05.187Z,80.70
2023-05-04T12:05:37.505Z,80.00
2023-05-04T12:06:09.588Z,79.60
2023-05-04T12:06:41.460Z,81.30
2023-05-04T12:07:13.287Z,80.30
2023-05-04T12:07:45.073Z,79.80
2023-05-04T12:08:32.293Z,78.60
2023-05-04T12:09:06.304Z,79.30
2023-05-04T12:09:49.283Z,79.90
2023-05-04T12:10:28.513Z,80.80
2023-05-04T12:11:24.162Z,79.50
2023-05-04T12:11:58.919Z,78.50
2023-05-04T12:12:36.160Z,78.60
2023-05-04T12:13:17.703Z,79.20
2023-05-04T12:14:01.404Z,78.60
2023-05-04T12:14:33.145Z,78.20
2023-05-04T12:15:05.849Z,78.40
2023-05-04T12:15:37.985Z,79.30
2023-05-04T12:16:10.569Z,80.40
2023-05-04T12:16:53.069Z,79.70
2023-05-04T12:17:24.913Z,80.00
2023-05-04T12:17:56.781Z,79.60
2023-05-04T12:18:29.781Z,80.10
2023-05-04T12:19:10.892Z,79.80
2023-05-04T12:19:54.118Z,79.70
2023-05-04T12:20:28.248Z,79.80
2023-05-04T12:21:28.003Z,79.80
2023-05-04T12:22:02.220Z,79.00
2023-05-04T12:23:08.800Z,78.40
2023-05-04T12:23:41.858Z,78.30
2023-05-04T12:24:13.803Z,78.60
2023-05-04T12:24:45.929Z,77.70
2023-05-04T12:25:20.967Z,78.10
2023-05-04T12:25:58.161Z,78.90
2023-05-04T12:26:30.619Z,78.90
2023-05-04T12:27:02.403Z,79.70
2023-05-04T12:27:34.192Z,79.30
2023-05-04T12:28:06.013Z,79.10
2023-05-04T12:28:39.197Z,79.00
2023-05-04T12:29:11.028Z,78.10
2023-05-04T12:29:42.874Z,78.20
2023-05-04T12:30:14.934Z,78.70
2023-05-04T12:30:46.640Z,77.80
2023-05-04T12:31:18.638Z,79.00
2023-05-04T12:31:50.534Z,78.00
2023-05-04T12:32:22.379Z,79.20
2023-05-04T12:32:54.304Z,78.80
2023-05-04T12:33:26.431Z,79.20
2023-05-04T12:33:58.201Z,77.70
2023-05-04T12:34:30.299Z,77.70
2023-05-04T12:35:02.050Z,77.20
2023-05-04T12:35:34.016Z,79.40
2023-05-04T12:36:06.714Z,77.80
2023-05-04T12:37:11.675Z,77.50
2023-05-04T12:37:43.444Z,78.30
2023-05-04T12:38:15.534Z,77.70
2023-05-04T12:38:47.335Z,77.70
2023-05-04T12:39:19.069Z,76.50
2023-05-04T12:39:50.940Z,77.00
2023-05-04T12:41:04.170Z,77.50
2023-05-04T12:41:36.074Z,78.20
2023-05-04T12:42:07.835Z,78.60
2023-05-04T12:42:42.187Z,78.60
2023-05-04T12:43:13.983Z,78.00
2023-05-04T12:43:45.836Z,76.40
2023-05-04T12:44:18.796Z,77.40
2023-05-04T12:44:50.525Z,77.90
2023-05-04T12:45:22.542Z,76.50
2023-05-04T12:45:54.572Z,77.10
2023-05-04T12:46:26.523Z,77.80
2023-05-04T12:46:58.329Z,78.70
2023-05-04T12:47:30.311Z,78.50
2023-05-04T12:48:02.420Z,78.50
2023-05-04T12:48:34.371Z,78.20
2023-05-04T12:49:06.781Z,77.20
2023-05-04T12:49:38.570Z,77.60
2023-05-04T12:50:10.629Z,79.10
2023-05-04T12:50:46.051Z,78.50
2023-05-04T12:51:17.906Z,78.30
2023-05-04T12:51:51.787Z,77.80
2023-05-04T12:52:23.543Z,78.50
2023-05-04T12:52:55.313Z,78.20
2023-05-04T12:53:29.964Z,79.10
2023-05-04T12:54:01.764Z,78.70
2023-05-04T12:54:33.492Z,79.00
2023-05-04T12:55:05.934Z,78.90
2023-05-04T12:55:38.424Z,77.80
2023-05-04T12:56:10.281Z,78.40
2023-05-04T12:56:42.079Z,77.10
2023-05-04T12:57:14.055Z,77.30
2023-05-04T12:57:45.883Z,78.80
2023-05-04T12:58:17.637Z,80.30
2023-05-04T12:58:49.383Z,77.10
2023-05-04T12:59:22.462Z,77.50
2023-05-04T12:59:54.184Z,78.40
2023-05-04T13:00:25.990Z,78.30
2023-05-04T13:00:58.013Z,78.10
2023-05-04T13:01:29.946Z,78.10
2023-05-04T13:02:01.848Z,78.10
2023-05-04T13:02:37.635Z,78.70
2023-05-04T13:03:09.611Z,79.20
2023-05-04T13:03:41.576Z,78.50
2023-05-04T13:04:14.071Z,78.80
2023-05-04T13:04:45.851Z,78.50
2023-05-04T13:05:18.447Z,77.40
2023-05-04T13:05:50.378Z,78.00
2023-05-04T13:06:54.302Z,76.50
2023-05-04T13:07:26.075Z,77.80
2023-05-04T13:07:58.398Z,77.10
2023-05-04T13:08:30.296Z,76.80
2023-05-04T13:09:05.603Z,77.30
2023-05-04T13:09:37.458Z,77.40
2023-05-04T13:10:09.750Z,77.50
2023-05-04T13:10:41.568Z,78.70
2023-05-04T13:11:14.536Z,80.90
2023-05-04T13:11:46.386Z,78.40
2023-05-04T13:12:18.179Z,77.90
2023-05-04T13:12:50.986Z,77.80
2023-05-04T13:13:26.338Z,77.10
2023-05-04T13:13:58.170Z,78.40
2023-05-04T13:14:30.059Z,78.10
2023-05-04T13:15:02.009Z,78.20
2023-05-04T13:15:33.815Z,77.70
2023-05-04T13:16:06.615Z,77.60
2023-05-04T13:16:38.401Z,77.90
2023-05-04T13:17:10.146Z,78.10
2023-05-04T13:17:45.172Z,78.20
2023-05-04T13:18:16.992Z,78.50
2023-05-04T13:18:48.811Z,78.30
2023-05-04T13:19:21.353Z,76.30
2023-05-04T13:19:53.153Z,78.30
2023-05-04T13:20:58.336Z,77.80
2023-05-04T13:21:30.074Z,78.20
2023-05-04T13:22:01.838Z,78.30
2023-05-04T13:22:33.601Z,78.10
2023-05-04T13:23:05.431Z,78.30
2023-05-04T13:23:37.210Z,79.00
2023-05-04T13:24:09.152Z,77.70
2023-05-04T13:24:41.126Z,78.20
2023-05-04T13:25:12.978Z,77.80
2023-05-04T13:25:44.744Z,77.20
2023-05-04T13:26:16.958Z,78.00
2023-05-04T13:26:48.679Z,77.30
2023-05-04T13:27:20.607Z,77.90
2023-05-04T13:27:52.670Z,77.40
2023-05-04T13:28:24.517Z,78.60
2023-05-04T13:28:56.316Z,78.20
2023-05-04T13:29:28.096Z,78.20
2023-05-04T13:30:03.489Z,77.60
2023-05-04T13:30:35.359Z,77.50
2023-05-04T13:31:08.582Z,78.00
2023-05-04T13:31:44.823Z,77.30
2023-05-04T13:32:49.459Z,77.80
2023-05-04T13:33:28.803Z,78.30
2023-05-04T13:34:01.480Z,77.60
2023-05-04T13:34:34.303Z,77.10
2023-05-04T13:35:07.058Z,77.80
2023-05-04T13:35:39.138Z,78.20
2023-05-04T13:36:10.891Z,77.20
2023-05-04T13:37:18.325Z,76.60
2023-05-04T13:37:50.777Z,77.70
2023-05-04T13:38:22.630Z,78.10
2023-05-04T13:38:54.410Z,77.80
2023-05-04T13:39:27.022Z,78.20
2023-05-04T13:39:59.594Z,77.80
2023-05-04T13:41:03.660Z,77.80
2023-05-04T13:41:35.474Z,77.70
2023-05-04T13:42:08.132Z,78.40
2023-05-04T13:42:39.996Z,78.20
2023-05-04T13:43:11.755Z,78.40
2023-05-04T13:43:43.829Z,77.60
2023-05-04T13:44:15.567Z,78.10
2023-05-04T13:44:48.291Z,77.90
2023-05-04T13:45:20.278Z,79.00
2023-05-04T13:45:52.307Z,78.00
2023-05-04T13:46:24.187Z,78.90
2023-05-04T13:46:56.167Z,78.90
2023-05-04T13:48:48.117Z,79.00
2023-05-04T13:49:19.908Z,79.20
2023-05-04T13:49:51.650Z,79.50
2023-05-04T13:50:23.626Z,79.20
2023-05-04T13:50:57.214Z,78.70
2023-05-04T13:51:28.988Z,78.80
2023-05-04T13:52:01.169Z,78.30
2023-05-04T13:52:33.104Z,78.60
2023-05-04T13:53:05.103Z,79.30
2023-05-04T13:53:37.152Z,79.00
2023-05-04T13:54:08.914Z,79.50
2023-05-04T13:54:41.765Z,79.10
2023-05-04T13:55:16.549Z,78.90
2023-05-04T13:55:48.332Z,79.20
2023-05-04T13:56:20.391Z,79.20
2023-05-04T13:56:52.165Z,79.40
2023-05-04T13:57:26.892Z,79.20
2023-05-04T13:57:58.729Z,79.10
2023-05-04T13:58:30.504Z,78.40
2023-05-04T13:59:02.285Z,80.10
2023-05-04T13:59:34.236Z,79.00
2023-05-04T14:00:08.588Z,80.10
2023-05-04T14:00:43.374Z,79.70
2023-05-04T14:01:15.991Z,79.40
2023-05-04T14:01:47.777Z,80.80
2023-05-04T14:02:19.706Z,80.40
2023-05-04T14:02:52.143Z,79.20
2023-05-04T14:03:24.113Z,78.90
2023-05-04T14:03:55.904Z,78.70
2023-05-04T14:04:27.705Z,79.40
2023-05-04T14:04:59.510Z,78.70
2023-05-04T14:05:31.619Z,79.30
2023-05-04T14:06:03.693Z,79.20
2023-05-04T14:06:35.948Z,79.60
2023-05-04T14:07:09.088Z,79.30
2023-05-04T14:07:40.901Z,78.90
2023-05-04T14:08:13.788Z,79.10
2023-05-04T14:08:45.622Z,79.40
2023-05-04T14:09:18.513Z,79.10
2023-05-04T14:09:50.407Z,78.70
2023-05-04T14:10:22.291Z,78.80
2023-05-04T14:10:54.133Z,78.80
2023-05-04T14:11:26.200Z,79.10
2023-05-04T14:11:58.647Z,79.00
2023-05-04T14:12:30.401Z,79.20
2023-05-04T14:13:02.156Z,79.30
2023-05-04T14:13:33.883Z,79.50
2023-05-04T14:14:05.578Z,79.50
2023-05-04T14:14:37.364Z,79.80
2023-05-04T14:15:09.701Z,80.20
2023-05-04T14:15:42.404Z,79.60
2023-05-04T14:16:14.217Z,80.00
2023-05-04T14:16:46.782Z,79.70
2023-05-04T14:17:18.582Z,79.90
2023-05-04T14:17:50.445Z,79.60
2023-05-04T14:18:22.252Z,79.70
2023-05-04T14:18:54.173Z,81.30
2023-05-04T14:19:27.092Z,79.30
2023-05-04T14:19:59.238Z,78.90
2023-05-04T14:20:31.646Z,79.70
2023-05-04T14:21:36.837Z,79.60
2023-05-04T14:22:08.585Z,79.50
2023-05-04T14:22:41.806Z,80.00
2023-05-04T14:23:13.526Z,79.90
2023-05-04T14:23:46.238Z,79.60
2023-05-04T14:24:18.009Z,79.80
2023-05-04T14:24:50.616Z,80.00
2023-05-04T14:25:22.436Z,79.80
2023-05-04T14:25:57.140Z,80.20
2023-05-04T14:26:29.379Z,79.90
2023-05-04T14:27:01.067Z,79.30
2023-05-04T14:27:36.023Z,79.40
2023-05-04T14:28:08.571Z,79.20
2023-05-04T14:28:40.574Z,79.60
2023-05-04T14:29:12.329Z,79.40
2023-05-04T14:29:44.843Z,80.10
2023-05-04T14:30:18.384Z,79.80
2023-05-04T14:30:50.885Z,79.80
2023-05-04T14:31:22.669Z,79.30
2023-05-04T14:31:55.778Z,82.80
2023-05-04T14:32:27.719Z,80.40
2023-05-04T14:32:59.676Z,79.20
2023-05-04T14:33:31.499Z,79.70
2023-05-04T14:34:03.397Z,79.80
2023-05-04T14:34:36.081Z,79.70